sensor_id;sensor_type;location;lat;lon;timestamp;P1;durP1;ratioP1;P2;durP2;ratioP2
14153;SDS011;7157;53.144;7.570;2022-07-05T00:08:25;4.07;;;1.85;;
14153;SDS011;7157;53.144;7.570;2022-07-05T00:18:29;6.07;;;2.05;;
14153;SDS011;7157;53.144;7.570;2022-07-05T00:28:32;5.35;;;2.20;;
14153;SDS011;7157;53.144;7.570;2022-07-05T00:38:36;4.60;;;2.35;;
14153;SDS011;7157;53.144;7.570;2022-07-05T00:48:39;4.38;;;2.45;;
14153;SDS011;7157;53.144;7.570;2022-07-05T00:58:43;3.05;;;1.90;;
14153;SDS011;7157;53.144;7.570;2022-07-05T01:08:45;4.22;;;1.85;;
14153;SDS011;7157;53.144;7.570;2022-07-05T01:18:50;5.63;;;2.00;;
14153;SDS011;7157;53.144;7.570;2022-07-05T01:28:54;6.45;;;2.53;;
14153;SDS011;7157;53.144;7.570;2022-07-05T01:38:57;4.50;;;2.30;;
14153;SDS011;7157;53.144;7.570;2022-07-05T01:49:03;5.63;;;2.28;;
14153;SDS011;7157;53.144;7.570;2022-07-05T01:59:08;4.65;;;2.83;;
14153;SDS011;7157;53.144;7.570;2022-07-05T02:09:12;4.40;;;2.50;;
14153;SDS011;7157;53.144;7.570;2022-07-05T02:19:15;4.68;;;2.60;;
14153;SDS011;7157;53.144;7.570;2022-07-05T02:29:19;5.28;;;2.63;;
14153;SDS011;7157;53.144;7.570;2022-07-05T02:39:22;5.18;;;2.45;;
14153;SDS011;7157;53.144;7.570;2022-07-05T02:49:26;6.45;;;2.92;;
14153;SDS011;7157;53.144;7.570;2022-07-05T02:59:28;4.90;;;3.03;;
14153;SDS011;7157;53.144;7.570;2022-07-05T03:09:33;5.15;;;2.88;;
14153;SDS011;7157;53.144;7.570;2022-07-05T03:19:36;10.23;;;3.08;;
14153;SDS011;7157;53.144;7.570;2022-07-05T03:29:40;4.63;;;2.78;;
14153;SDS011;7157;53.144;7.570;2022-07-05T03:39:43;4.57;;;2.60;;
14153;SDS011;7157;53.144;7.570;2022-07-05T03:49:48;4.57;;;2.95;;
14153;SDS011;7157;53.144;7.570;2022-07-05T03:59:50;6.78;;;3.40;;
14153;SDS011;7157;53.144;7.570;2022-07-05T04:09:54;5.82;;;3.00;;
14153;SDS011;7157;53.144;7.570;2022-07-05T04:19:57;4.95;;;2.83;;
14153;SDS011;7157;53.144;7.570;2022-07-05T04:30:01;5.25;;;3.30;;
14153;SDS011;7157;53.144;7.570;2022-07-05T04:40:05;5.13;;;2.47;;
14153;SDS011;7157;53.144;7.570;2022-07-05T04:50:10;5.28;;;2.90;;
14153;SDS011;7157;53.144;7.570;2022-07-05T05:00:13;6.60;;;3.60;;
14153;SDS011;7157;53.144;7.570;2022-07-05T05:10:18;7.30;;;3.63;;
14153;SDS011;7157;53.144;7.570;2022-07-05T05:20:21;6.07;;;3.22;;
14153;SDS011;7157;53.144;7.570;2022-07-05T05:30:25;7.57;;;3.90;;
14153;SDS011;7157;53.144;7.570;2022-07-05T05:40:27;6.20;;;3.80;;
14153;SDS011;7157;53.144;7.570;2022-07-05T05:50:32;7.93;;;3.05;;
14153;SDS011;7157;53.144;7.570;2022-07-05T06:00:36;6.28;;;3.30;;
14153;SDS011;7157;53.144;7.570;2022-07-05T06:10:40;6.18;;;3.13;;
14153;SDS011;7157;53.144;7.570;2022-07-05T06:20:42;6.50;;;2.50;;
14153;SDS011;7157;53.144;7.570;2022-07-05T06:30:47;4.80;;;1.83;;
14153;SDS011;7157;53.144;7.570;2022-07-05T06:40:49;6.72;;;1.70;;
14153;SDS011;7157;53.144;7.570;2022-07-05T06:50:53;4.20;;;1.30;;
14153;SDS011;7157;53.144;7.570;2022-07-05T07:00:57;3.20;;;1.10;;
14153;SDS011;7157;53.144;7.570;2022-07-05T07:11:21;2.67;;;1.15;;
14153;SDS011;7157;53.144;7.570;2022-07-05T07:21:24;3.15;;;1.00;;
14153;SDS011;7157;53.144;7.570;2022-07-05T07:31:28;4.03;;;1.17;;
14153;SDS011;7157;53.144;7.570;2022-07-05T07:41:31;2.28;;;0.90;;
14153;SDS011;7157;53.144;7.570;2022-07-05T07:51:35;4.07;;;1.08;;
14153;SDS011;7157;53.144;7.570;2022-07-05T08:01:38;3.88;;;1.10;;
14153;SDS011;7157;53.144;7.570;2022-07-05T08:11:47;3.55;;;1.02;;
14153;SDS011;7157;53.144;7.570;2022-07-05T08:21:51;3.58;;;0.88;;
14153;SDS011;7157;53.144;7.570;2022-07-05T08:31:55;8.88;;;1.20;;
14153;SDS011;7157;53.144;7.570;2022-07-05T08:41:58;3.55;;;0.80;;
14153;SDS011;7157;53.144;7.570;2022-07-05T08:52:03;3.20;;;0.90;;
14153;SDS011;7157;53.144;7.570;2022-07-05T09:02:10;3.53;;;0.88;;
14153;SDS011;7157;53.144;7.570;2022-07-05T09:12:16;1.77;;;0.80;;
14153;SDS011;7157;53.144;7.570;2022-07-05T09:32:28;6.78;;;0.85;;
14153;SDS011;7157;53.144;7.570;2022-07-05T09:42:31;3.78;;;0.90;;
14153;SDS011;7157;53.144;7.570;2022-07-05T09:52:35;3.85;;;1.13;;
14153;SDS011;7157;53.144;7.570;2022-07-05T10:02:39;2.58;;;0.80;;
14153;SDS011;7157;53.144;7.570;2022-07-05T10:12:45;3.97;;;1.02;;
14153;SDS011;7157;53.144;7.570;2022-07-05T10:22:49;2.35;;;0.80;;
14153;SDS011;7157;53.144;7.570;2022-07-05T10:32:54;5.57;;;1.30;;
14153;SDS011;7157;53.144;7.570;2022-07-05T10:42:58;5.45;;;1.55;;
14153;SDS011;7157;53.144;7.570;2022-07-05T10:53:03;2.10;;;0.70;;
14153;SDS011;7157;53.144;7.570;2022-07-05T11:03:06;3.80;;;0.88;;
14153;SDS011;7157;53.144;7.570;2022-07-05T11:13:37;4.03;;;1.35;;
14153;SDS011;7157;53.144;7.570;2022-07-05T11:23:40;2.30;;;0.85;;
14153;SDS011;7157;53.144;7.570;2022-07-05T11:33:44;3.13;;;0.88;;
14153;SDS011;7157;53.144;7.570;2022-07-05T11:43:58;2.03;;;0.90;;
14153;SDS011;7157;53.144;7.570;2022-07-05T11:54:03;4.70;;;0.93;;
14153;SDS011;7157;53.144;7.570;2022-07-05T12:04:20;3.08;;;0.90;;
14153;SDS011;7157;53.144;7.570;2022-07-05T12:14:25;3.22;;;1.00;;
14153;SDS011;7157;53.144;7.570;2022-07-05T12:24:28;3.85;;;0.93;;
14153;SDS011;7157;53.144;7.570;2022-07-05T12:34:33;3.10;;;1.08;;
14153;SDS011;7157;53.144;7.570;2022-07-05T12:44:36;2.72;;;0.80;;
14153;SDS011;7157;53.144;7.570;2022-07-05T12:54:40;4.70;;;0.98;;
14153;SDS011;7157;53.144;7.570;2022-07-05T13:05:00;3.72;;;0.80;;
14153;SDS011;7157;53.144;7.570;2022-07-05T13:15:05;4.70;;;0.80;;
14153;SDS011;7157;53.144;7.570;2022-07-05T13:25:08;2.08;;;0.70;;
14153;SDS011;7157;53.144;7.570;2022-07-05T13:35:13;5.38;;;1.17;;
14153;SDS011;7157;53.144;7.570;2022-07-05T13:45:16;2.90;;;0.70;;
14153;SDS011;7157;53.144;7.570;2022-07-05T13:55:21;2.50;;;0.88;;
14153;SDS011;7157;53.144;7.570;2022-07-05T14:05:23;6.20;;;0.82;;
14153;SDS011;7157;53.144;7.570;2022-07-05T14:15:27;2.97;;;1.73;;
14153;SDS011;7157;53.144;7.570;2022-07-05T14:25:30;1.92;;;0.73;;
14153;SDS011;7157;53.144;7.570;2022-07-05T14:35:36;2.67;;;0.70;;
14153;SDS011;7157;53.144;7.570;2022-07-05T14:45:39;3.20;;;0.75;;
14153;SDS011;7157;53.144;7.570;2022-07-05T14:55:43;3.30;;;0.70;;
14153;SDS011;7157;53.144;7.570;2022-07-05T15:05:46;4.45;;;0.80;;
14153;SDS011;7157;53.144;7.570;2022-07-05T15:15:51;3.35;;;1.10;;
14153;SDS011;7157;53.144;7.570;2022-07-05T15:25:54;3.30;;;0.82;;
14153;SDS011;7157;53.144;7.570;2022-07-05T15:35:58;2.90;;;1.23;;
14153;SDS011;7157;53.144;7.570;2022-07-05T15:46:01;2.88;;;0.80;;
14153;SDS011;7157;53.144;7.570;2022-07-05T15:56:05;3.78;;;0.90;;
14153;SDS011;7157;53.144;7.570;2022-07-05T16:06:08;3.05;;;0.80;;
14153;SDS011;7157;53.144;7.570;2022-07-05T16:16:12;6.55;;;0.75;;
14153;SDS011;7157;53.144;7.570;2022-07-05T16:26:17;2.47;;;1.00;;
14153;SDS011;7157;53.144;7.570;2022-07-05T16:36:22;2.20;;;0.80;;
14153;SDS011;7157;53.144;7.570;2022-07-05T16:46:26;3.67;;;0.95;;
14153;SDS011;7157;53.144;7.570;2022-07-05T16:56:30;2.60;;;1.08;;
14153;SDS011;7157;53.144;7.570;2022-07-05T17:06:33;2.95;;;0.73;;
14153;SDS011;7157;53.144;7.570;2022-07-05T17:16:37;1.50;;;0.73;;
14153;SDS011;7157;53.144;7.570;2022-07-05T17:26:39;2.15;;;0.90;;
14153;SDS011;7157;53.144;7.570;2022-07-05T17:36:43;1.70;;;0.70;;
14153;SDS011;7157;53.144;7.570;2022-07-05T17:46:46;1.85;;;0.60;;
14153;SDS011;7157;53.144;7.570;2022-07-05T17:56:50;5.07;;;0.90;;
14153;SDS011;7157;53.144;7.570;2022-07-05T18:07:00;4.15;;;0.70;;
14153;SDS011;7157;53.144;7.570;2022-07-05T18:17:04;2.97;;;0.68;;
14153;SDS011;7157;53.144;7.570;2022-07-05T18:27:07;4.80;;;0.80;;
14153;SDS011;7157;53.144;7.570;2022-07-05T18:37:23;4.60;;;1.08;;
14153;SDS011;7157;53.144;7.570;2022-07-05T18:47:26;4.97;;;1.00;;
14153;SDS011;7157;53.144;7.570;2022-07-05T18:57:30;4.28;;;0.90;;
14153;SDS011;7157;53.144;7.570;2022-07-05T19:07:33;3.25;;;0.80;;
14153;SDS011;7157;53.144;7.570;2022-07-05T19:17:54;2.83;;;0.70;;
14153;SDS011;7157;53.144;7.570;2022-07-05T19:27:57;6.35;;;0.90;;
14153;SDS011;7157;53.144;7.570;2022-07-05T19:38:07;2.03;;;0.70;;
14153;SDS011;7157;53.144;7.570;2022-07-05T19:48:10;1.95;;;0.75;;
14153;SDS011;7157;53.144;7.570;2022-07-05T19:58:15;8.07;;;1.27;;
14153;SDS011;7157;53.144;7.570;2022-07-05T20:08:17;3.10;;;0.85;;
14153;SDS011;7157;53.144;7.570;2022-07-05T20:18:22;3.78;;;0.80;;
14153;SDS011;7157;53.144;7.570;2022-07-05T20:28:26;1.67;;;0.70;;
14153;SDS011;7157;53.144;7.570;2022-07-05T20:38:30;2.92;;;0.80;;
14153;SDS011;7157;53.144;7.570;2022-07-05T20:48:34;2.95;;;0.80;;
14153;SDS011;7157;53.144;7.570;2022-07-05T20:58:39;3.90;;;1.00;;
14153;SDS011;7157;53.144;7.570;2022-07-05T21:08:41;7.97;;;1.20;;
14153;SDS011;7157;53.144;7.570;2022-07-05T21:18:45;15.55;;;6.03;;
14153;SDS011;7157;53.144;7.570;2022-07-05T21:28:48;8.93;;;1.20;;
14153;SDS011;7157;53.144;7.570;2022-07-05T21:38:52;9.43;;;1.40;;
14153;SDS011;7157;53.144;7.570;2022-07-05T21:48:55;5.78;;;1.80;;
14153;SDS011;7157;53.144;7.570;2022-07-05T21:58:59;2.50;;;1.17;;
14153;SDS011;7157;53.144;7.570;2022-07-05T22:09:19;8.93;;;1.10;;
14153;SDS011;7157;53.144;7.570;2022-07-05T22:19:24;1.80;;;0.90;;
14153;SDS011;7157;53.144;7.570;2022-07-05T22:29:26;4.50;;;1.13;;
14153;SDS011;7157;53.144;7.570;2022-07-05T22:39:30;4.05;;;0.70;;
14153;SDS011;7157;53.144;7.570;2022-07-05T22:49:33;9.57;;;1.23;;
14153;SDS011;7157;53.144;7.570;2022-07-05T22:59:37;3.90;;;0.90;;
14153;SDS011;7157;53.144;7.570;2022-07-05T23:09:40;3.40;;;1.00;;
14153;SDS011;7157;53.144;7.570;2022-07-05T23:19:44;6.80;;;1.17;;
14153;SDS011;7157;53.144;7.570;2022-07-05T23:29:46;11.45;;;1.33;;
14153;SDS011;7157;53.144;7.570;2022-07-05T23:39:50;2.63;;;1.10;;
14153;SDS011;7157;53.144;7.570;2022-07-05T23:49:53;3.67;;;1.20;;
14153;SDS011;7157;53.144;7.570;2022-07-05T23:59:57;2.58;;;1.20;;
